首页
METAR-TAF:

METAR-TAF

机场 :

伊斯坦堡新機場

伊斯坦堡, 土耳其

纬度: 41-16-31N, 经度: 028-45-07E, 海拔: 99米

当前天气观测

该预报发布于43分钟前的01:20 UTC
风速7节,风向西南
温度 16°C
湿度 77%
气压 1015 hPa
能见度10公里或以上
1500米以下无云,无积雨云

METAR: LTFM 310120Z 22007KT CAVOK 16/12 Q1015 NOSIG RMK RWY17L 22012KT RWY34L 22008KT RWY16R 21009KT

时间: 05:03 (02:03 UTC)

预报

该预报发布于3小时和23分钟前的22:40 UTC
预报有效从31日的 00点(UTC)到 01日的 06点(UTC)
风速12节,风向南转西南
能见度10公里或以上
1500米以下无云,无积雨云
成为
从 31日的 13点(UTC)到 31日的 16点(UTC)
风速2节,风向多变
散云层高于3500英尺
多云层高于10000英尺
成为
从 31日的 19点(UTC)到 31日的 22点(UTC)
风速12节,风向南转西南

TAF: LTFM 302240Z 3100/0106 21012KT CAVOK BECMG 3113/3116 VRB02KT SCT035 BKN100 BECMG 3119/3122 21012KT

超过4000个机场的气象观测和天气预报(METAR&TAF报告)。

可查询的气象台以黄色和红色小点在地图上表示。

将鼠标移到小点上方,可查看气象台名称。

然后点击查看天气观测和预报。

如需切换地图:点击带黑十字的绿色按钮放大地图;点击带横线的绿色按钮缩小地图;或者点击绿色箭头查看邻近地区的地图。


METAR-TAF: